Time;durP1;ratioP1;P1;durP2;ratioP2;P2;SDS_P1;SDS_P2;PMS_P1;PMS_P2;Temp;Humidity;BMP_temperature;BMP_pressure;BME280_temperature;BME280_humidity;BME280_pressure;Samples;Min_cycle;Max_cycle;Signal;HPM_P1;HPM_P2
2021/12/12 00:02:18;;;;;;;15.45;9.02;;;;;;;-11.35;90.24;101682.63;6111079;23;20016;-80
2021/12/12 00:04:50;;;;;;;18.33;9.18;;;;;;;-11.39;90.89;101673.13;6089779;23;20021;-79
2021/12/12 00:07:50;;;;;;;13.95;8.93;;;;;;;-11.43;90.14;101663.63;6119235;23;20080;-80
2021/12/12 00:10:24;;;;;;;18.02;9.52;;;;;;;-11.37;90.94;101671.56;6128313;23;20028;-79
2021/12/12 00:12:52;;;;;;;11.30;7.15;;;;;;;-11.36;90.86;101659.06;6119183;23;20059;-82
2021/12/12 00:15:25;;;;;;;9.43;6.72;;;;;;;-11.29;90.48;101676.31;6088930;23;20013;-77
2021/12/12 00:17:51;;;;;;;14.00;6.30;;;;;;;-11.30;90.96;101676.19;6060079;23;20124;-81
2021/12/12 00:20:19;;;;;;;6.18;4.78;;;;;;;-11.17;90.62;101698.84;6062780;23;20536;-78
2021/12/12 00:22:45;;;;;;;15.60;10.98;;;;;;;-11.29;90.72;101660.31;6112137;23;20092;-80
2021/12/12 00:25:11;;;;;;;22.58;12.75;;;;;;;-11.14;91.11;101668.78;6109699;23;20334;-79
2021/12/12 00:27:56;;;;;;;9.90;7.85;;;;;;;-11.15;90.65;101694.75;6132673;23;20028;-81
2021/12/12 00:30:22;;;;;;;18.45;12.15;;;;;;;-11.22;90.98;101665.81;6083505;23;20032;-81
2021/12/12 00:32:50;;;;;;;28.92;13.75;;;;;;;-11.34;90.57;101664.19;6131576;23;20017;-79
2021/12/12 00:35:49;;;;;;;21.35;9.88;;;;;;;-11.20;90.33;101698.66;6108785;23;20023;-80
2021/12/12 00:39:06;;;;;;;14.70;10.45;;;;;;;-11.35;90.75;101673.38;6167199;23;20027;-78
2021/12/12 00:41:42;;;;;;;17.15;9.82;;;;;;;-11.41;91.23;101626.78;6061497;23;20016;-79
2021/12/12 00:44:08;;;;;;;13.52;11.13;;;;;;;-11.33;91.02;101639.09;6116713;23;20083;-79
2021/12/12 00:46:35;;;;;;;8.25;6.10;;;;;;;-11.14;90.76;101694.00;6084173;23;20020;-77
2021/12/12 00:49:01;;;;;;;7.85;6.90;;;;;;;-11.17;90.67;101673.66;6082589;23;20052;-79
2021/12/12 00:51:33;;;;;;;23.90;10.85;;;;;;;-11.15;90.72;101689.72;6059126;23;20017;-79
2021/12/12 00:54:00;;;;;;;6.53;5.78;;;;;;;-11.09;90.45;101695.13;6108503;23;20088;-79
2021/12/12 00:56:30;;;;;;;7.60;5.78;;;;;;;-11.07;91.00;101707.84;6083885;23;20370;-80
2021/12/12 00:58:56;;;;;;;14.13;7.80;;;;;;;-11.24;91.20;101681.63;6107434;23;20473;-79
2021/12/12 01:01:28;;;;;;;24.17;8.82;;;;;;;-11.28;90.36;101673.00;6084997;23;20025;-80
2021/12/12 01:04:19;;;;;;;6.85;5.10;;;;;;;-11.09;90.84;101701.84;6161743;23;20040;-80
2021/12/12 01:06:45;;;;;;;12.33;8.43;;;;;;;-11.03;91.22;101679.53;6111089;23;20020;-79
2021/12/12 01:09:20;;;;;;;10.85;6.40;;;;;;;-11.13;91.10;101686.53;6131598;23;20315;-80
2021/12/12 01:11:51;;;;;;;9.90;5.82;;;;;;;-11.19;90.97;101682.78;6131913;23;20041;-79
2021/12/12 01:14:21;;;;;;;10.48;7.28;;;;;;;-11.16;91.28;101686.31;6084380;23;20023;-79
2021/12/12 01:16:55;;;;;;;8.10;6.53;;;;;;;-10.98;90.99;101734.50;6062175;23;20020;-80
2021/12/12 01:19:51;;;;;;;14.75;9.75;;;;;;;-11.11;91.34;101702.63;6091113;23;20360;-80
2021/12/12 01:22:29;;;;;;;13.63;7.53;;;;;;;-11.12;91.04;101702.50;6089387;23;20024;-81
2021/12/12 01:24:57;;;;;;;15.57;7.93;;;;;;;-11.12;91.30;101694.94;6158890;23;20028;-80
2021/12/12 01:27:27;;;;;;;6.05;5.35;;;;;;;-11.12;90.50;101705.91;6085724;23;20021;-79
2021/12/12 01:29:58;;;;;;;;;;;;;;;-11.04;90.64;101716.47;6123264;23;20017;-78
2021/12/12 01:32:31;;;;;;;14.00;7.60;;;;;;;-11.15;90.64;101685.56;6131895;23;19943;-81
2021/12/12 01:35:21;;;;;;;13.18;9.18;;;;;;;-11.02;90.57;101706.47;6090645;23;20025;-80
2021/12/12 01:40:42;;;;;;;17.92;9.48;;;;;;;-11.23;90.84;101675.81;6118317;23;20016;-79
2021/12/12 01:43:24;;;;;;;15.55;9.85;;;;;;;-11.09;90.63;101707.75;6108823;23;20461;-80
2021/12/12 01:45:57;;;;;;;20.15;7.88;;;;;;;-11.18;90.82;101694.59;6082327;23;20021;-79
2021/12/12 01:48:27;;;;;;;11.38;6.65;;;;;;;-11.17;91.23;101691.28;6066073;23;20461;-80
2021/12/12 01:50:56;;;;;;;28.52;13.90;;;;;;;-11.08;90.86;101701.94;6137965;23;20493;-80
2021/12/12 01:53:26;;;;;;;25.13;12.45;;;;;;;-11.30;90.71;101676.19;6064755;23;20017;-80
2021/12/12 01:56:02;;;;;;;18.10;10.65;;;;;;;-11.24;91.16;101700.13;6088267;23;20021;-80
2021/12/12 01:58:30;;;;;;;28.75;15.38;;;;;;;-11.44;91.13;101675.34;6086812;23;20017;-81
2021/12/12 02:01:08;;;;;;;5.43;5.03;;;;;;;-11.33;90.63;101683.56;6097688;23;20017;-81
2021/12/12 02:03:40;;;;;;;16.38;9.00;;;;;;;-11.42;91.09;101683.88;6122645;23;20013;-81
2021/12/12 02:06:08;;;;;;;18.88;6.45;;;;;;;-11.39;91.09;101689.13;6096189;23;20017;-81
2021/12/12 02:09:00;;;;;;;8.73;5.97;;;;;;;-11.48;90.57;101677.59;6110114;23;20523;-80
2021/12/12 02:11:29;;;;;;;18.23;9.02;;;;;;;-11.39;90.52;101690.75;6082109;23;20041;-80
2021/12/12 02:14:08;;;;;;;8.02;7.20;;;;;;;-11.52;90.75;101685.75;6052289;23;20293;-81
2021/12/12 02:16:42;;;;;;;32.10;15.40;;;;;;;-11.55;90.51;101667.91;6155740;23;20079;-80
2021/12/12 02:19:09;;;;;;;24.77;13.27;;;;;;;-11.48;90.77;101690.19;6109361;23;20365;-79
2021/12/12 02:21:51;;;;;;;40.53;21.50;;;;;;;-11.81;90.58;101636.97;6134574;23;20472;-80
2021/12/12 02:35:25;;;;;;;12.68;8.80;;;;;;;-11.75;90.71;101652.47;6096237;23;20027;-80
2021/12/12 02:37:57;;;;;;;23.27;13.30;;;;;;;-11.68;90.94;101673.84;6114565;23;20017;-80
2021/12/12 02:40:38;;;;;;;6.53;5.45;;;;;;;-11.74;90.09;101664.25;6092126;23;20430;-80
2021/12/12 02:43:13;;;;;;;7.10;5.70;;;;;;;-11.57;90.62;101687.06;6071884;23;20031;-79
2021/12/12 02:45:39;;;;;;;;;;;;;;;-11.55;90.54;101690.59;6072896;23;20024;-80
2021/12/12 02:48:09;;;;;;;28.45;16.63;;;;;;;-11.90;90.59;101641.41;6093325;23;19916;-82
2021/12/12 02:50:40;;;;;;;11.88;8.30;;;;;;;-11.74;90.78;101674.34;6093753;23;20516;-81
2021/12/12 02:53:39;;;;;;;19.10;11.95;;;;;;;-11.72;90.25;101665.25;6062145;23;20031;-80
2021/12/12 02:56:08;;;;;;;6.55;5.97;;;;;;;-11.85;90.31;101646.75;6131842;23;20023;-79
2021/12/12 02:58:35;;;;;;;21.75;13.02;;;;;;;-11.83;90.38;101647.72;6108120;23;20462;-80
2021/12/12 03:01:15;;;;;;;17.77;12.32;;;;;;;-11.76;90.51;101670.88;6132781;23;20021;-79
2021/12/12 03:03:52;;;;;;;19.90;11.85;;;;;;;-11.69;89.88;101678.00;6060962;23;20525;-79
2021/12/12 03:06:28;;;;;;;19.98;11.00;;;;;;;-11.65;90.36;101679.06;6083691;23;20017;-80
2021/12/12 03:08:59;;;;;;;17.23;10.82;;;;;;;-11.94;90.64;101642.00;6109259;23;20027;-79
2021/12/12 03:11:27;;;;;;;19.88;9.68;;;;;;;-11.80;90.11;101658.84;6107517;23;20353;-80
2021/12/12 03:13:55;;;;;;;31.02;12.43;;;;;;;-11.88;90.50;101637.38;6107605;23;20021;-79
2021/12/12 03:16:21;;;;;;;11.43;8.65;;;;;;;-11.89;89.91;101643.16;6132013;23;20108;-79
2021/12/12 03:18:47;;;;;;;13.05;7.70;;;;;;;-11.75;90.18;101657.50;6085430;23;20060;-81
2021/12/12 03:21:31;;;;;;;43.00;22.38;;;;;;;-11.96;90.41;101655.25;6085997;23;20028;-78
2021/12/12 03:24:10;;;;;;;34.72;18.73;;;;;;;-11.77;90.30;101669.09;6112670;23;20491;-79
2021/12/12 03:29:31;;;;;;;19.08;10.07;;;;;;;-11.73;90.06;101681.13;6133289;23;20497;-79
2021/12/12 03:32:22;;;;;;;25.08;14.00;;;;;;;-11.76;90.15;101664.94;6133676;23;20044;-80
2021/12/12 03:34:54;;;;;;;18.70;10.07;;;;;;;-11.80;90.58;101668.91;6134918;23;20025;-80
2021/12/12 03:37:40;;;;;;;14.68;7.30;;;;;;;-11.74;90.52;101675.97;6114976;23;20025;-81
2021/12/12 03:40:26;;;;;;;11.20;4.00;;;;;;;-11.77;90.52;101658.16;6144338;23;20028;-82
2021/12/12 03:42:54;;;;;;;22.17;11.70;;;;;;;-11.71;90.32;101674.53;6065699;23;20017;-80
2021/12/12 03:45:20;;;;;;;7.30;5.63;;;;;;;-11.82;90.61;101640.28;6189541;23;20339;-81
2021/12/12 03:47:53;;;;;;;13.18;7.55;;;;;;;-11.88;90.44;101619.75;6139349;23;20017;-81
2021/12/12 03:50:48;;;;;;;12.63;7.95;;;;;;;-11.64;89.97;101671.59;6138254;23;20055;-82
2021/12/12 03:53:15;;;;;;;11.50;8.00;;;;;;;-11.69;90.10;101651.94;6120628;23;20024;-81
2021/12/12 03:55:41;;;;;;;15.27;9.73;;;;;;;-11.57;90.01;101657.72;6144271;23;20013;-81
2021/12/12 03:58:07;;;;;;;13.23;7.82;;;;;;;-11.63;90.88;101648.16;6146215;23;20052;-83
2021/12/12 04:01:34;;;;;;;13.63;8.05;;;;;;;-11.59;90.07;101663.47;6143074;23;20024;-81
2021/12/12 04:04:27;;;;;;;10.77;9.10;;;;;;;-11.56;90.45;101673.72;6148059;23;20008;-81
2021/12/12 04:06:54;;;;;;;11.48;7.63;;;;;;;-11.72;90.27;101644.22;6118500;23;20017;-79
2021/12/12 04:09:20;;;;;;;31.13;14.32;;;;;;;-11.74;90.51;101631.53;6105914;23;20028;-80
2021/12/12 04:11:59;;;;;;;6.93;5.63;;;;;;;-11.72;90.32;101647.63;6205556;23;20005;-78
2021/12/12 04:14:48;;;;;;;29.83;12.98;;;;;;;-11.61;90.09;101637.31;6124052;23;20021;-79
2021/12/12 04:17:16;;;;;;;28.13;10.10;;;;;;;-11.64;90.27;101628.78;6056884;23;20052;-79
2021/12/12 04:19:43;;;;;;;4.95;4.25;;;;;;;-11.56;90.83;101643.50;6093192;23;20113;-79
2021/12/12 04:22:09;;;;;;;18.33;11.20;;;;;;;-11.52;90.94;101641.28;6084271;23;20373;-79
2021/12/12 04:24:38;;;;;;;6.30;5.70;;;;;;;-11.36;90.86;101668.28;6059819;23;20105;-79
2021/12/12 04:27:10;;;;;;;5.03;4.63;;;;;;;-11.35;90.59;101670.03;6131734;23;20075;-79
2021/12/12 04:29:39;;;;;;;28.48;9.23;;;;;;;-11.50;90.98;101641.34;6115552;23;20021;-82
2021/12/12 04:32:10;;;;;;;13.02;6.65;;;;;;;-11.29;90.88;101675.44;6067974;23;20107;-82
2021/12/12 04:34:39;;;;;;;14.70;10.32;;;;;;;-11.45;91.10;101655.13;6113744;23;20017;-80
2021/12/12 04:37:07;;;;;;;11.48;6.93;;;;;;;-11.48;90.30;101645.69;6111813;23;20027;-80
2021/12/12 04:39:40;;;;;;;15.52;9.18;;;;;;;-11.40;90.72;101654.63;6115780;23;20028;-84
2021/12/12 04:42:18;;;;;;;7.68;6.97;;;;;;;-11.36;90.94;101668.28;6070070;23;20021;-82
2021/12/12 04:44:49;;;;;;;22.65;10.32;;;;;;;-11.22;90.67;101693.53;6072630;23;20021;-82
2021/12/12 04:50:38;;;;;;;10.98;7.65;;;;;;;-11.39;90.66;101655.50;6127036;23;20013;-81
2021/12/12 04:53:29;;;;;;;6.40;4.85;;;;;;;-11.51;91.27;101634.56;6121971;23;20017;-82
2021/12/12 04:56:07;;;;;;;21.20;7.78;;;;;;;-11.20;90.75;101686.06;6092371;23;20021;-81
2021/12/12 04:58:39;;;;;;;27.00;11.65;;;;;;;-11.21;90.67;101697.78;6110225;23;20155;-80
2021/12/12 05:01:14;;;;;;;8.98;7.95;;;;;;;-11.21;91.16;101696.91;6131718;23;20017;-80
2021/12/12 05:03:56;;;;;;;7.88;6.95;;;;;;;-11.33;90.66;101678.53;6113702;23;20184;-80
2021/12/12 05:06:39;;;;;;;20.25;7.63;;;;;;;-11.28;91.05;101682.19;6145194;23;20020;-80
2021/12/12 05:09:05;;;;;;;6.00;5.43;;;;;;;-11.19;91.08;101692.88;6065819;23;20067;-81
2021/12/12 05:11:54;;;;;;;22.85;10.80;;;;;;;-11.23;90.72;101688.41;6184854;23;20470;-80
2021/12/12 05:14:23;;;;;;;6.50;5.90;;;;;;;-11.29;91.04;101660.31;6113645;23;20067;-81
2021/12/12 05:16:52;;;;;;;12.73;8.75;;;;;;;-11.29;91.17;101675.44;6085553;23;20021;-80
2021/12/12 05:19:47;;;;;;;8.55;5.88;;;;;;;-11.32;91.12;101675.25;6113475;23;20089;-80
2021/12/12 05:22:23;;;;;;;14.27;9.52;;;;;;;-11.37;90.85;101677.47;6140597;23;20488;-79
2021/12/12 05:25:02;;;;;;;28.27;11.10;;;;;;;-11.26;90.75;101690.75;6115570;23;20055;-82
2021/12/12 05:27:29;;;;;;;17.15;8.15;;;;;;;-11.20;90.67;101698.66;6115175;23;20075;-82
2021/12/12 05:30:00;;;;;;;11.45;6.95;;;;;;;-11.19;90.58;101672.69;6104326;23;20066;-81
2021/12/12 05:32:27;;;;;;;;;;;;;;;-11.12;90.98;101700.88;6132064;23;20017;-83
2021/12/12 05:34:54;;;;;;;18.95;7.55;;;;;;;-11.14;91.01;101699.91;6107785;23;19939;-82
2021/12/12 05:37:20;;;;;;;20.98;8.10;;;;;;;-11.27;90.83;101678.91;6131494;23;20021;-82
2021/12/12 05:39:46;;;;;;;10.27;6.55;;;;;;;-11.03;90.89;101719.88;6108752;23;20013;-82
2021/12/12 05:42:38;;;;;;;12.35;6.70;;;;;;;-10.99;90.84;101706.69;6129625;23;20056;-85
2021/12/12 05:45:05;;;;;;;33.67;15.35;;;;;;;-11.14;90.73;101686.44;6109939;23;20021;-85
2021/12/12 05:47:31;;;;;;;36.10;14.25;;;;;;;-11.17;90.75;101686.25;6107674;23;20001;-83
2021/12/12 05:49:58;;;;;;;19.17;10.18;;;;;;;-11.16;91.03;101693.06;6153641;23;20047;-81
2021/12/12 06:41:01;;;;;;;23.83;10.38;;;;;;;-10.71;90.62;101684.84;6118304;23;20074;-76
2021/12/12 06:43:30;;;;;;;43.58;17.98;;;;;;;-10.75;90.54;101673.72;6156232;23;20052;-78
2021/12/12 06:45:59;;;;;;;20.40;10.02;;;;;;;-10.72;90.96;101662.91;6157917;23;20052;-77
2021/12/12 06:48:25;;;;;;;11.95;8.60;;;;;;;-10.73;90.47;101654.47;6213121;23;20025;-78
2021/12/12 06:50:52;;;;;;;11.70;7.70;;;;;;;-10.48;91.01;101686.19;6131906;23;20016;-78
2021/12/12 06:53:19;;;;;;;18.58;9.38;;;;;;;-10.53;90.61;101695.16;6156898;23;20093;-78
2021/12/12 06:55:47;;;;;;;15.30;7.22;;;;;;;-10.24;91.36;101698.56;6132659;23;20055;-76
2021/12/12 06:58:15;;;;;;;21.58;8.93;;;;;;;-10.30;90.84;101709.97;6132671;23;20120;-78
2021/12/12 07:00:47;;;;;;;19.90;11.05;;;;;;;-10.55;91.30;101676.53;6109237;23;20028;-77
2021/12/12 07:03:39;;;;;;;20.27;12.82;;;;;;;-10.36;90.94;101702.03;6151713;23;20361;-77
2021/12/12 07:06:10;;;;;;;10.20;8.05;;;;;;;-10.43;91.24;101680.63;6136351;23;20016;-77
2021/12/12 07:08:38;;;;;;;18.67;9.80;;;;;;;-10.20;90.77;101712.25;6112139;23;20031;-77
2021/12/12 07:11:12;;;;;;;12.32;8.68;;;;;;;-10.22;91.09;101704.59;6136053;23;20356;-76
2021/12/12 07:14:01;;;;;;;20.15;9.75;;;;;;;-10.43;90.94;101657.03;6156270;23;20436;-77
2021/12/12 07:16:43;;;;;;;32.30;15.63;;;;;;;-10.20;91.21;101692.94;6110013;23;20163;-78
2021/12/12 07:19:16;;;;;;;19.25;10.27;;;;;;;-10.16;90.92;101681.34;6154697;23;20075;-77
2021/12/12 07:21:48;;;;;;;6.45;5.57;;;;;;;-10.05;91.71;101703.00;6104337;23;20417;-77
2021/12/12 07:24:15;;;;;;;20.17;9.95;;;;;;;-10.22;91.19;101660.81;6106917;23;20044;-77
2021/12/12 07:26:53;;;;;;;22.00;12.23;;;;;;;-10.04;91.35;101694.63;6110521;23;20408;-77
2021/12/12 07:29:21;;;;;;;16.67;7.45;;;;;;;-10.23;91.36;101647.31;6130650;23;20017;-78
2021/12/12 07:31:48;;;;;;;15.80;9.75;;;;;;;-10.06;91.83;101666.78;6129721;23;20464;-76
2021/12/12 07:34:15;;;;;;;34.78;14.57;;;;;;;-9.94;92.30;101681.75;6106238;23;20524;-76
2021/12/12 07:36:56;;;;;;;27.23;12.20;;;;;;;-9.85;91.88;101672.19;6129562;23;20017;-78
2021/12/12 07:39:29;;;;;;;17.65;9.52;;;;;;;-10.04;91.53;101644.13;6176490;23;20021;-76
2021/12/12 07:41:56;;;;;;;7.45;5.07;;;;;;;-9.94;91.91;101656.50;6080820;23;20452;-76
2021/12/12 07:44:26;;;;;;;18.58;9.68;;;;;;;-10.07;91.96;101626.28;6130314;23;20021;-76
2021/12/12 07:46:52;;;;;;;21.13;10.43;;;;;;;-9.95;92.44;101654.78;6127649;23;20021;-76
2021/12/12 07:49:19;;;;;;;23.13;13.50;;;;;;;-9.94;91.85;101656.50;6129197;23;20021;-76
2021/12/12 07:51:46;;;;;;;9.57;6.03;;;;;;;-9.84;91.81;101665.44;6154646;23;20071;-77
2021/12/12 07:54:12;;;;;;;33.72;11.65;;;;;;;-9.70;92.21;101667.97;6130761;23;20021;-76
2021/12/12 07:56:39;;;;;;;22.83;9.88;;;;;;;-9.62;92.58;101673.44;6126683;23;20366;-76
2021/12/12 07:59:05;;;;;;;12.57;7.10;;;;;;;-9.64;92.98;101678.41;6154493;23;20099;-76
2021/12/12 08:01:32;;;;;;;7.28;6.40;;;;;;;-9.56;92.66;101688.94;6152369;23;20025;-77
2021/12/12 08:03:58;;;;;;;28.15;13.18;;;;;;;-9.57;92.40;101680.50;6181484;23;20364;-76
2021/12/12 08:06:24;;;;;;;16.08;8.93;;;;;;;-9.44;92.91;101665.97;6058490;23;20017;-77
2021/12/12 08:08:51;;;;;;;27.02;14.98;;;;;;;-9.46;92.38;101655.81;6130747;23;20472;-77
2021/12/12 08:11:21;;;;;;;14.13;7.70;;;;;;;-9.43;92.69;101660.16;6155084;23;20017;-76
2021/12/12 08:13:48;;;;;;;35.72;13.80;;;;;;;-9.42;92.63;101636.63;6154588;23;20461;-77
2021/12/12 08:16:15;;;;;;;14.65;7.68;;;;;;;-9.34;92.70;101655.59;6082989;23;20087;-76
2021/12/12 08:18:41;;;;;;;18.45;8.75;;;;;;;-9.24;92.20;101666.28;6131657;23;20013;-77
2021/12/12 08:21:07;;;;;;;18.88;8.90;;;;;;;-9.31;92.06;101638.03;6106242;23;20028;-77
2021/12/12 08:23:34;;;;;;;23.23;11.40;;;;;;;-9.21;91.78;101670.63;6131166;23;20413;-76
2021/12/12 08:26:02;;;;;;;24.95;12.93;;;;;;;-9.22;91.50;101664.69;6131740;23;20017;-77
2021/12/12 08:28:29;;;;;;;21.50;13.07;;;;;;;-9.05;92.23;101652.94;6107276;23;20031;-77
2021/12/12 08:30:55;;;;;;;35.90;14.27;;;;;;;-9.17;91.50;101632.94;6154597;23;20075;-77
2021/12/12 08:33:22;;;;;;;13.88;9.75;;;;;;;-9.16;91.41;101649.84;6130237;23;20071;-76
2021/12/12 08:35:48;;;;;;;21.73;11.98;;;;;;;-9.02;91.54;101656.50;6105063;23;20112;-77
2021/12/12 08:38:15;;;;;;;33.40;16.67;;;;;;;-9.04;92.50;101658.09;6152090;23;20200;-77
2021/12/12 08:40:47;;;;;;;24.20;13.50;;;;;;;-9.08;92.13;101627.50;6154036;23;20021;-76
2021/12/12 08:43:19;;;;;;;32.75;14.60;;;;;;;-9.02;92.33;101627.81;6181333;23;20013;-77
2021/12/12 08:45:58;;;;;;;33.78;12.73;;;;;;;-9.01;91.68;101609.31;6181389;23;20024;-76
2021/12/12 08:48:26;;;;;;;22.13;11.38;;;;;;;-8.76;91.49;101632.53;6131538;23;20551;-77
2021/12/12 08:50:54;;;;;;;22.65;12.25;;;;;;;-8.91;91.68;101620.78;6154155;23;20102;-77
2021/12/12 08:53:21;;;;;;;26.92;11.80;;;;;;;-8.76;91.43;101632.53;6153695;23;20071;-77
2021/12/12 08:55:49;;;;;;;17.42;10.85;;;;;;;-8.71;91.64;101615.94;6157066;23;20462;-77
2021/12/12 08:58:18;;;;;;;26.63;13.93;;;;;;;-8.66;91.94;101637.28;6119684;23;20100;-77
2021/12/12 09:00:55;;;;;;;20.85;8.73;;;;;;;-8.79;92.35;101616.31;6196436;23;20023;-77
2021/12/12 09:03:30;;;;;;;14.65;11.48;;;;;;;-8.65;92.34;101646.63;6149311;23;20361;-81
2021/12/12 09:06:03;;;;;;;33.10;15.15;;;;;;;-8.64;92.82;101652.56;6168187;23;20025;-76
2021/12/12 09:09:04;;;;;;;25.90;14.15;;;;;;;-8.57;93.45;101654.56;6161388;23;20031;-77
2021/12/12 09:11:32;;;;;;;;;;;;;;;-8.46;93.10;101663.59;6095440;23;20018;-76
2021/12/12 09:14:16;;;;;;;33.05;13.38;;;;;;;-8.46;93.19;101650.94;6116996;23;19912;-78
2021/12/12 09:17:10;;;;;;;30.73;13.10;;;;;;;-8.47;93.42;101639.94;6153693;23;20104;-77
2021/12/12 09:20:03;;;;;;;24.83;13.52;;;;;;;-8.41;93.76;101641.03;6122520;23;20036;-77
2021/12/12 09:22:42;;;;;;;11.75;8.63;;;;;;;-8.37;94.22;101653.03;6179468;23;20040;-77
2021/12/12 09:25:15;;;;;;;29.13;12.15;;;;;;;-8.55;93.51;101630.22;6104343;23;20032;-78
2021/12/12 09:27:48;;;;;;;27.27;12.63;;;;;;;-8.55;93.96;101638.69;6130515;23;20095;-77
2021/12/12 09:30:18;;;;;;;14.45;7.47;;;;;;;-8.33;94.18;101650.75;6081487;23;20017;-79
2021/12/12 09:32:54;;;;;;;26.63;14.77;;;;;;;-8.41;94.28;101643.59;6081410;23;20037;-78
2021/12/12 09:35:28;;;;;;;29.67;14.35;;;;;;;-8.37;94.80;101641.25;6129129;23;20071;-80
2021/12/12 09:37:59;;;;;;;22.45;10.93;;;;;;;-8.39;94.55;101609.94;6109555;23;20021;-80
2021/12/12 09:41:08;;;;;;;21.88;10.30;;;;;;;-8.23;94.51;101646.97;6132916;23;20021;-82
2021/12/12 09:47:57;;;;;;;24.17;12.45;;;;;;;-8.01;94.65;101654.81;6146314;23;20017;-81
2021/12/12 09:53:47;;;;;;;43.97;12.63;;;;;;;-7.93;94.60;101640.88;6166740;23;20017;-83
2021/12/12 09:56:31;;;;;;;17.10;9.38;;;;;;;-7.85;94.44;101649.69;6116667;23;20024;-81
2021/12/12 09:59:28;;;;;;;12.85;8.52;;;;;;;-7.87;94.43;101638.63;6161185;23;20021;-83
2021/12/12 10:02:15;;;;;;;24.45;10.13;;;;;;;-7.85;94.29;101623.50;6123674;23;20072;-81
2021/12/12 10:05:01;;;;;;;24.10;12.48;;;;;;;-7.71;94.27;101637.66;6136709;23;20667;-83
2021/12/12 10:07:52;;;;;;;37.35;15.30;;;;;;;-7.76;93.81;101632.41;6107220;23;20021;-81
2021/12/12 10:10:43;;;;;;;39.58;15.38;;;;;;;-7.60;93.84;101623.84;6134492;23;20013;-82
2021/12/12 10:13:31;;;;;;;17.20;8.80;;;;;;;-7.58;93.72;101612.97;6111253;23;20072;-80
2021/12/12 10:16:16;;;;;;;12.85;8.25;;;;;;;-7.55;93.55;101622.38;6157124;23;20574;-80
2021/12/12 10:19:00;;;;;;;66.20;20.55;;;;;;;-7.58;93.49;101627.31;6157689;23;20048;-79
2021/12/12 10:21:34;;;;;;;27.08;11.35;;;;;;;-7.54;93.74;101614.84;6148431;23;20573;-78
2021/12/12 10:24:18;;;;;;;12.65;6.45;;;;;;;-7.53;93.79;101610.66;6146432;23;20425;-78
2021/12/12 10:26:48;;;;;;;37.72;14.25;;;;;;;-7.45;93.70;101616.94;6124516;23;20079;-79
2021/12/12 10:29:24;;;;;;;36.95;10.38;;;;;;;-7.50;94.44;101606.59;6128039;23;20121;-78
2021/12/12 10:31:56;;;;;;;52.05;17.20;;;;;;;-7.47;94.48;101604.19;6101219;23;20096;-79
2021/12/12 10:34:50;;;;;;;34.65;14.43;;;;;;;-7.35;94.47;101601.34;6075457;23;20443;-76
2021/12/12 10:37:28;;;;;;;68.95;22.90;;;;;;;-7.32;94.49;101590.44;6101562;23;20021;-77
2021/12/12 10:39:59;;;;;;;32.17;11.00;;;;;;;-7.41;94.30;101576.56;6147283;23;20100;-77
2021/12/12 10:42:31;;;;;;;16.67;10.43;;;;;;;-7.44;94.77;101567.97;6099506;23;20592;-77
2021/12/12 10:45:07;;;;;;;18.02;7.60;;;;;;;-7.30;94.61;101586.34;6122367;23;20017;-77
2021/12/12 10:47:58;;;;;;;29.58;13.52;;;;;;;-7.31;94.81;101597.25;6145908;23;20024;-75
2021/12/12 10:50:32;;;;;;;27.58;10.70;;;;;;;-7.25;95.49;101602.59;6150287;23;20021;-77
2021/12/12 10:53:57;;;;;;;40.20;13.15;;;;;;;-7.23;95.44;101590.88;6147652;23;20031;-75
2021/12/12 10:56:43;;;;;;;23.58;10.68;;;;;;;-7.20;94.95;101602.03;6089782;23;20017;-78
2021/12/12 10:59:22;;;;;;;18.30;8.35;;;;;;;-7.22;95.04;101567.22;6098012;23;20013;-79
2021/12/12 11:01:50;;;;;;;36.60;12.82;;;;;;;-7.08;95.65;101573.78;6147043;23;20033;-79
2021/12/12 11:04:32;;;;;;;22.15;9.32;;;;;;;-6.94;95.23;101580.34;6126549;23;20018;-79
2021/12/12 11:07:00;;;;;;;20.30;11.55;;;;;;;-6.96;95.38;101587.88;6149199;23;20080;-78
2021/12/12 11:09:27;;;;;;;61.95;20.50;;;;;;;-6.89;96.31;101563.63;6123842;23;20025;-79
2021/12/12 11:12:21;;;;;;;30.88;12.23;;;;;;;-6.78;94.96;101587.78;6123877;23;20045;-78
2021/12/12 11:15:03;;;;;;;25.75;14.18;;;;;;;-6.86;95.05;101574.78;6114268;23;20017;-78
2021/12/12 11:17:32;;;;;;;17.83;8.55;;;;;;;-6.83;95.49;101594.31;6148358;23;20021;-78
2021/12/12 11:20:08;;;;;;;25.77;13.00;;;;;;;-6.78;95.54;101584.38;6123258;23;20407;-78
2021/12/12 11:22:53;;;;;;;21.05;8.43;;;;;;;-6.77;95.81;101589.50;6076203;23;20021;-80
2021/12/12 11:25:38;;;;;;;29.90;13.30;;;;;;;-6.66;96.10;101602.66;6102363;23;20429;-79
2021/12/12 11:28:21;;;;;;;17.40;8.70;;;;;;;-6.76;95.93;101600.53;6101839;23;20020;-79
2021/12/12 11:30:49;;;;;;;19.67;9.48;;;;;;;-6.74;96.26;101599.78;6054727;23;20018;-77
2021/12/12 11:33:15;;;;;;;14.45;10.02;;;;;;;-6.85;96.10;101585.78;6101840;23;20105;-79
2021/12/12 11:35:44;;;;;;;34.33;12.07;;;;;;;-6.79;96.33;101583.50;6126413;23;20069;-79
2021/12/12 11:38:39;;;;;;;32.38;11.73;;;;;;;-6.69;96.41;101595.78;6126430;23;20017;-79
2021/12/12 11:41:07;;;;;;;30.27;14.98;;;;;;;-6.66;95.74;101598.47;6126609;23;20025;-79
2021/12/12 11:43:42;;;;;;;41.53;14.27;;;;;;;-6.89;96.60;101558.53;6151012;23;20023;-79
2021/12/12 11:46:14;;;;;;;26.85;12.93;;;;;;;-6.72;96.29;101571.94;6055090;23;20021;-79
2021/12/12 11:48:52;;;;;;;57.97;17.75;;;;;;;-6.73;96.53;101560.03;6101702;23;20017;-79
2021/12/12 11:51:38;;;;;;;55.38;18.05;;;;;;;-6.60;97.21;101583.47;6150554;23;20032;-78
2021/12/12 11:54:33;;;;;;;36.22;13.95;;;;;;;-6.55;96.84;101587.09;6078578;23;20458;-79
2021/12/12 11:57:07;;;;;;;56.50;18.60;;;;;;;-6.50;96.52;101584.72;6102332;23;20022;-80
2021/12/12 11:59:53;;;;;;;67.60;21.38;;;;;;;-6.49;96.58;101576.31;6150571;23;20017;-79
2021/12/12 12:02:32;;;;;;;26.27;10.57;;;;;;;-6.57;96.56;101583.59;6126647;23;20024;-79
2021/12/12 12:05:38;;;;;;;44.97;17.85;;;;;;;-6.58;97.05;101581.88;6125589;23;20033;-78
2021/12/12 12:08:24;;;;;;;78.40;22.90;;;;;;;-6.50;96.79;101584.72;6058219;23;20021;-80
2021/12/12 12:11:12;;;;;;;23.00;8.48;;;;;;;-6.51;97.22;101583.00;6101579;23;20024;-79
2021/12/12 12:13:53;;;;;;;44.22;15.52;;;;;;;-6.49;97.22;101586.47;6101548;23;20023;-78
2021/12/12 12:16:23;;;;;;;21.80;9.68;;;;;;;-6.58;97.09;101579.34;6150862;23;20028;-79
2021/12/12 12:18:55;;;;;;;62.30;18.63;;;;;;;-6.50;96.87;101588.13;6125692;23;20017;-78
2021/12/12 12:21:39;;;;;;;61.38;18.75;;;;;;;-6.66;97.41;101550.22;6103209;23;20052;-78
2021/12/12 12:24:37;;;;;;;48.65;16.90;;;;;;;-6.46;96.95;101584.06;6101858;23;20363;-79
2021/12/12 12:27:13;;;;;;;84.13;22.00;;;;;;;-6.65;97.10;101548.56;6148136;23;20028;-79
2021/12/12 12:29:54;;;;;;;66.43;21.70;;;;;;;-6.47;97.04;101579.78;6151341;23;20044;-78
2021/12/12 12:32:55;;;;;;;72.90;19.48;;;;;;;-6.38;97.45;101586.09;6126046;23;20025;-79
2021/12/12 12:35:55;;;;;;;39.28;13.80;;;;;;;-6.41;97.04;101590.19;6150301;23;20458;-79
2021/12/12 12:38:45;;;;;;;50.88;14.50;;;;;;;-6.38;97.50;101595.41;6125294;23;20060;-78
2021/12/12 12:42:02;;;;;;;81.40;23.38;;;;;;;-6.38;97.52;101591.16;6149436;23;20022;-77
2021/12/12 12:45:06;;;;;;;65.30;21.75;;;;;;;-6.37;97.03;101595.47;6088323;23;20029;-77
2021/12/12 12:47:41;;;;;;;7.30;4.70;;;;;;;-6.35;97.25;101591.28;6149970;23;20033;-77
2021/12/12 12:50:35;;;;;;;41.10;13.57;;;;;;;-6.32;97.53;101597.31;6151825;23;20021;-77
2021/12/12 12:53:13;;;;;;;60.08;17.52;;;;;;;-6.29;98.08;101592.38;6153192;23;20021;-77
2021/12/12 12:56:00;;;;;;;95.05;23.52;;;;;;;-6.30;97.25;101583.88;6149360;23;20025;-78
2021/12/12 12:58:57;;;;;;;65.88;20.70;;;;;;;-6.25;97.30;101592.56;6124590;23;20057;-78
2021/12/12 13:01:33;;;;;;;55.17;16.23;;;;;;;-6.24;97.09;101598.50;6100216;23;20032;-77
2021/12/12 13:04:22;;;;;;;62.65;16.52;;;;;;;-6.25;97.25;101587.50;6100874;23;20080;-80
2021/12/12 13:07:14;;;;;;;12.32;7.28;;;;;;;-6.35;97.75;101570.97;6150917;23;20024;-78
2021/12/12 13:10:16;;;;;;;13.20;8.77;;;;;;;-6.20;97.52;101591.06;6121162;23;20022;-83